Terminal Aerodrome Forecast
Issued by NWS

Home | Current Version | Previous Version | Text Only | Print | Product List | Glossary On
Versions: 1 2 3 4 5 6 7 8 9 10 11 12 13 14 15
000
FTAK31 PAFA 301721
TAFASC
TAF
PASC 301721Z 3018/3118 11017KT 1 1/2SM BR OVC003
     FM302200 10012G20KT P6SM OVC006
     FM311100 28011KT 1/2SM FG OVC003=

USA.gov is the U.S. government's official web portal to all federal, state and local government web resources and services.